首页
METAR-TAF:

METAR-TAF

机场 :

帕, 泰国

纬度: 18-10N, 经度: 100-10E, 海拔: 161米

当前天气观测

该预报发布于7小时和16分钟前的10:00 UTC
风速2节,风向多变
温度 27°C
湿度 79%
气压 1014 hPa
能见度10公里或以上
少量云层高于2500英尺
多云层高于10000英尺

METAR: VTCP 121000Z VRB02KT 9999 FEW025 BKN100 27/23 Q1014 NOSIG

时间: 00:16 (17:16 UTC)

预报

该预报发布于6小时和16分钟前的11:00 UTC
预报有效从12日的 12点(UTC)到 13日的 12点(UTC)
风速5节,风向东转东南
能见度10公里或以上
多云层高于3000英尺

TAF: VTCP 121100Z 1212/1312 12005KT 9999 BKN030

超过4000个机场的气象观测和天气预报(METAR&TAF报告)。

可查询的气象台以黄色和红色小点在地图上表示。

将鼠标移到小点上方,可查看气象台名称。

然后点击查看天气观测和预报。

如需切换地图:点击带黑十字的绿色按钮放大地图;点击带横线的绿色按钮缩小地图;或者点击绿色箭头查看邻近地区的地图。


METAR-TAF: